Aviation Digital Data Service (ADDS)

Output produced by METARs form (1507 UTC 22 April 2021)
found at http://www.aviationweather.gov/metar/data/
 
VTSG 221500Z 00000KT 8000 FEW020 BKN100 25/25 Q1011 NOSIG
VTSG 221400Z 00000KT 8000 SCT020 BKN100 25/25 Q1010 NOSIG
VTSG 221300Z 00000KT 8000 FEW018 SCT020 BKN100 25/25 Q1010 NOSIG
VTSG 221200Z 14002KT 9999 SCT018 BKN020 BKN100 25/25 Q1009 NOSIG
VTSG 221100Z 09004KT 050V110 9999 -RA FEW018CB SCT020 BKN100 25/25 Q1008 RETS NOSIG
VTSG 221000Z 31017KT 5000 1500SE TSRA SCT015CB BKN020 BKN100 26/24 Q1008 BECMG TL1015 8000 NSW
VTSG 220900Z 25011KT 9999 -RA SCT018TCU SCT020 BKN100 33/24 Q1007 TEMPO TL0950 3000 RA
VTSG 220800Z 27010KT 240V310 9999 FEW018TCU SCT020 34/24 Q1007 NOSIG
VTSG 220700Z 27007KT 210V330 9999 SCT020 SCT100 34/24 Q1008 NOSIG
VTSG 220600Z 28005KT 210V330 9999 SCT020 SCT100 34/23 Q1009 NOSIG
VTSG 220500Z 29006KT 210V360 9999 SCT020 33/24 Q1011 NOSIG
VTSG 220400Z 27006KT 210V320 9999 BKN020 33/25 Q1012 NOSIG
VTSG 220300Z VRB04KT 9999 SCT020 32/25 Q1012 NOSIG
VTSG 220200Z VRB02KT 9999 FEW020CB 30/26 Q1012 NOSIG
VTSG 220100Z VRB01KT 9999 FEW020CB 28/27 Q1011 NOSIG
VTSG 220000Z 00000KT 5000 BR FEW020 25/25 Q1010 BECMG TL0030 7000 NSW
VTSG 212300Z VRB02KT 7000 FEW020 24/24 Q1009 NOSIG
VTSG 212200Z 00000KT 6000 FEW020 23/23 Q1009 NOSIG
VTSG 212100Z VRB01KT 6000 FEW020 24/24 Q1009 NOSIG
VTSG 212000Z 00000KT 6000 FEW020 24/24 Q1009 NOSIG
VTSG 211900Z 00000KT 6000 FEW020 24/24 Q1009 NOSIG
VTSG 211800Z 00000KT 7000 FEW020 24/24 Q1010 NOSIG
VTSG 211700Z 00000KT 9000 FEW020 25/24 Q1011 NOSIG
VTSG 211600Z 02003KT 9999 FEW020 25/24 Q1012 NOSIG
TAF VTSG 221100Z 2212/2312 26008KT 9999 SCT020 
     BECMG 2214/2216 00000KT 
     BECMG 2302/2304 26006KT 
     TEMPO 2308/2312 26010G25KT 5000 TSRA FEW018CB SCT020 BKN100